AAL2948 KMIA-KCHS
Flight info
| Callsign | AAL2948 |
|---|---|
| Flight time | 1h 26m |
| Altitude | 37000 |
| Route | ALTNN2 DUCEN Q87 VIYAP DCT SAV BAGGY3 |
| Aircraft | A319/M-SDE3FGHIRWY/LB1 |
Departure
| Time | 2026-04-20 00:26 |
|---|---|
| Airport | Miami International Airport (KMIA) |
Arrival
| Time | 2026-04-20 01:53 |
|---|---|
| Airport | Charleston International Airport (KCHS) |
| Time | Latitude | Longitude | Altitude | Speed | Heading |
|---|---|---|---|---|---|
| 2026-04-19 23:47 | 25.79784 | -80.27593 | 16 ft | 0 kts | 177° |
| 2026-04-20 00:17 | 25.79805 | -80.27594 | 15 ft | 4 kts | 177° |
| 2026-04-20 00:17 | 25.79832 | -80.27596 | 16 ft | 4 kts | 177° |
| 2026-04-20 00:17 | 25.79859 | -80.27597 | 16 ft | 4 kts | 177° |
| 2026-04-20 00:17 | 25.79880 | -80.27598 | 16 ft | 4 kts | 152° |
| 2026-04-20 00:18 | 25.79893 | -80.27618 | 18 ft | 4 kts | 91° |
| 2026-04-20 00:18 | 25.79892 | -80.27642 | 17 ft | 1 kts | 87° |
| 2026-04-20 00:23 | 25.79893 | -80.27630 | 15 ft | 5 kts | 87° |
| 2026-04-20 00:23 | 25.79901 | -80.27562 | 15 ft | 10 kts | 66° |
| 2026-04-20 00:23 | 25.79966 | -80.27534 | 15 ft | 11 kts | 21° |
| 2026-04-20 00:23 | 25.80038 | -80.27493 | 15 ft | 12 kts | 13° |
| 2026-04-20 00:24 | 25.80073 | -80.27421 | 16 ft | 12 kts | 89° |
| 2026-04-20 00:24 | 25.80077 | -80.27321 | 16 ft | 13 kts | 87° |
| 2026-04-20 00:24 | 25.80081 | -80.27213 | 17 ft | 15 kts | 87° |
| 2026-04-20 00:24 | 25.80086 | -80.27094 | 16 ft | 16 kts | 87° |
| 2026-04-20 00:25 | 25.80125 | -80.26979 | 17 ft | 16 kts | 34° |
| 2026-04-20 00:25 | 25.80200 | -80.27016 | 18 ft | 14 kts | 265° |
| 2026-04-20 00:25 | 25.80195 | -80.27146 | 17 ft | 24 kts | 268° |
| 2026-04-20 00:25 | 25.80176 | -80.27618 | 15 ft | 98 kts | 267° |
| 2026-04-20 00:26 | 25.80134 | -80.28599 | 19 ft | 156 kts | 267° |
| 2026-04-20 00:26 | 25.80078 | -80.29840 | 560 ft | 160 kts | 266° |
| 2026-04-20 00:26 | 25.80089 | -80.31083 | 1219 ft | 161 kts | 275° |
| 2026-04-20 00:26 | 25.80205 | -80.32328 | 1885 ft | 164 kts | 276° |
| 2026-04-20 00:27 | 25.80315 | -80.33604 | 2512 ft | 169 kts | 274° |
| 2026-04-20 00:27 | 25.80392 | -80.34926 | 3158 ft | 173 kts | 273° |
| 2026-04-20 00:27 | 25.80438 | -80.36270 | 3797 ft | 175 kts | 272° |
| 2026-04-20 00:27 | 25.80456 | -80.37627 | 4455 ft | 176 kts | 271° |
| 2026-04-20 00:28 | 25.80468 | -80.39001 | 5034 ft | 183 kts | 274° |
| 2026-04-20 00:28 | 25.80978 | -80.40355 | 5278 ft | 207 kts | 314° |
| 2026-04-20 00:28 | 25.82158 | -80.41416 | 5581 ft | 231 kts | 322° |
| 2026-04-20 00:28 | 25.83495 | -80.42569 | 6013 ft | 255 kts | 323° |
| 2026-04-20 00:29 | 25.85072 | -80.43664 | 6662 ft | 271 kts | 334° |
| 2026-04-20 00:29 | 25.86885 | -80.44300 | 7512 ft | 278 kts | 351° |
| 2026-04-20 00:29 | 25.88829 | -80.44338 | 8427 ft | 282 kts | 1° |
| 2026-04-20 00:29 | 25.90800 | -80.44252 | 9348 ft | 285 kts | 1° |
| 2026-04-20 00:30 | 25.92796 | -80.44163 | 10203 ft | 290 kts | 1° |
| 2026-04-20 00:30 | 25.94857 | -80.43794 | 10552 ft | 315 kts | 15° |
| 2026-04-20 00:30 | 25.96918 | -80.42761 | 11001 ft | 333 kts | 30° |
| 2026-04-20 00:30 | 25.98773 | -80.41164 | 11716 ft | 342 kts | 39° |
| 2026-04-20 00:31 | 26.00568 | -80.39408 | 12469 ft | 346 kts | 38° |
| 2026-04-20 00:31 | 26.02398 | -80.37649 | 13228 ft | 351 kts | 38° |
| 2026-04-20 00:31 | 26.04263 | -80.35866 | 13957 ft | 355 kts | 37° |
| 2026-04-20 00:31 | 26.06149 | -80.34068 | 14592 ft | 360 kts | 37° |
| 2026-04-20 00:32 | 26.08063 | -80.32241 | 15217 ft | 366 kts | 37° |
| 2026-04-20 00:32 | 26.10012 | -80.30378 | 15828 ft | 371 kts | 37° |
| 2026-04-20 00:32 | 26.11979 | -80.28486 | 16431 ft | 377 kts | 37° |
| 2026-04-20 00:32 | 26.13976 | -80.26558 | 17051 ft | 382 kts | 38° |
| 2026-04-20 00:33 | 26.16007 | -80.24624 | 17652 ft | 387 kts | 34° |
| 2026-04-20 00:33 | 26.18286 | -80.23039 | 18246 ft | 387 kts | 21° |
| 2026-04-20 00:33 | 26.20809 | -80.22018 | 18789 ft | 386 kts | 9° |
| 2026-04-20 00:33 | 26.23447 | -80.21605 | 19381 ft | 382 kts | 357° |
| 2026-04-20 00:34 | 26.26091 | -80.21745 | 20042 ft | 380 kts | 351° |
| 2026-04-20 00:34 | 26.28726 | -80.21987 | 20676 ft | 382 kts | 351° |
| 2026-04-20 00:34 | 26.31389 | -80.22226 | 21287 ft | 385 kts | 351° |
| 2026-04-20 00:34 | 26.34066 | -80.22463 | 21861 ft | 388 kts | 351° |
| 2026-04-20 00:35 | 26.36798 | -80.22707 | 22449 ft | 391 kts | 351° |
| 2026-04-20 00:35 | 26.39522 | -80.22957 | 23035 ft | 394 kts | 351° |
| 2026-04-20 00:35 | 26.42261 | -80.23230 | 23601 ft | 397 kts | 350° |
| 2026-04-20 00:35 | 26.45017 | -80.23515 | 24073 ft | 400 kts | 350° |
| 2026-04-20 00:36 | 26.47798 | -80.23805 | 24534 ft | 402 kts | 349° |
| 2026-04-20 00:36 | 26.50591 | -80.24097 | 25012 ft | 405 kts | 349° |
| 2026-04-20 00:36 | 26.53401 | -80.24396 | 25456 ft | 407 kts | 349° |
| 2026-04-20 00:36 | 26.56234 | -80.24700 | 25926 ft | 409 kts | 348° |
| 2026-04-20 00:37 | 26.59067 | -80.25067 | 26370 ft | 411 kts | 346° |
| 2026-04-20 00:37 | 26.61902 | -80.25513 | 26808 ft | 413 kts | 345° |
| 2026-04-20 00:37 | 26.64751 | -80.26013 | 27231 ft | 415 kts | 345° |
| 2026-04-20 00:37 | 26.67610 | -80.26531 | 27669 ft | 418 kts | 344° |
| 2026-04-20 00:38 | 26.70464 | -80.27124 | 28098 ft | 416 kts | 339° |
| 2026-04-20 00:38 | 26.73196 | -80.28151 | 28525 ft | 413 kts | 333° |
| 2026-04-20 00:38 | 26.75894 | -80.29294 | 28961 ft | 416 kts | 333° |
| 2026-04-20 00:38 | 26.78610 | -80.30433 | 29386 ft | 419 kts | 333° |
| 2026-04-20 00:39 | 26.81355 | -80.31576 | 29805 ft | 421 kts | 333° |
| 2026-04-20 00:39 | 26.84099 | -80.32718 | 30216 ft | 424 kts | 333° |
| 2026-04-20 00:39 | 26.85976 | -80.33499 | 30432 ft | 426 kts | 332° |
| 2026-04-20 00:39 | 26.88766 | -80.34661 | 30735 ft | 429 kts | 332° |
| 2026-04-20 00:40 | 26.91567 | -80.35832 | 31053 ft | 432 kts | 332° |
| 2026-04-20 00:40 | 26.94394 | -80.37013 | 31371 ft | 434 kts | 332° |
| 2026-04-20 00:40 | 26.97238 | -80.38185 | 31686 ft | 437 kts | 332° |
| 2026-04-20 00:40 | 27.00145 | -80.39360 | 32011 ft | 439 kts | 332° |
| 2026-04-20 00:41 | 27.03026 | -80.40512 | 32351 ft | 440 kts | 333° |
| 2026-04-20 00:41 | 27.05913 | -80.41661 | 32805 ft | 439 kts | 332° |
| 2026-04-20 00:41 | 27.08781 | -80.42808 | 33246 ft | 438 kts | 332° |
| 2026-04-20 00:41 | 27.11642 | -80.43987 | 33684 ft | 436 kts | 331° |
| 2026-04-20 00:42 | 27.14464 | -80.45210 | 34111 ft | 435 kts | 330° |
| 2026-04-20 00:42 | 27.17268 | -80.46466 | 34549 ft | 432 kts | 329° |
| 2026-04-20 00:42 | 27.20046 | -80.47723 | 35027 ft | 429 kts | 329° |
| 2026-04-20 00:42 | 27.22796 | -80.48962 | 35532 ft | 424 kts | 329° |
| 2026-04-20 00:43 | 27.25532 | -80.50183 | 36039 ft | 420 kts | 329° |
| 2026-04-20 00:43 | 27.28231 | -80.51376 | 36536 ft | 415 kts | 329° |
| 2026-04-20 00:43 | 27.30906 | -80.52558 | 36937 ft | 412 kts | 329° |
| 2026-04-20 00:44 | 27.36178 | -80.54890 | 37053 ft | 402 kts | 329° |
| 2026-04-20 00:44 | 27.41422 | -80.57084 | 37060 ft | 402 kts | 331° |
| 2026-04-20 00:45 | 27.46739 | -80.59161 | 37067 ft | 402 kts | 332° |
| 2026-04-20 00:45 | 27.51987 | -80.61204 | 37067 ft | 402 kts | 331° |
| 2026-04-20 00:46 | 27.57291 | -80.63303 | 37059 ft | 401 kts | 331° |
| 2026-04-20 00:46 | 27.62551 | -80.65402 | 37061 ft | 401 kts | 331° |
| 2026-04-20 00:47 | 27.67816 | -80.67501 | 37051 ft | 401 kts | 331° |
| 2026-04-20 00:47 | 27.73073 | -80.69598 | 37053 ft | 401 kts | 331° |
| 2026-04-20 00:48 | 27.78336 | -80.71707 | 37074 ft | 401 kts | 331° |
| 2026-04-20 00:48 | 27.83587 | -80.73818 | 37058 ft | 401 kts | 331° |
| 2026-04-20 00:49 | 27.88859 | -80.75926 | 37060 ft | 402 kts | 331° |
| 2026-04-20 00:49 | 27.94130 | -80.78040 | 37057 ft | 402 kts | 331° |
| 2026-04-20 00:50 | 27.99401 | -80.80163 | 37058 ft | 402 kts | 331° |
| 2026-04-20 00:50 | 28.04674 | -80.82279 | 37057 ft | 402 kts | 331° |
| 2026-04-20 00:51 | 28.09955 | -80.84395 | 37065 ft | 403 kts | 330° |
| 2026-04-20 00:51 | 28.15247 | -80.86522 | 37041 ft | 404 kts | 330° |
| 2026-04-20 00:52 | 28.20552 | -80.88663 | 37042 ft | 405 kts | 330° |
| 2026-04-20 00:52 | 28.25858 | -80.90808 | 37047 ft | 405 kts | 330° |
| 2026-04-20 00:53 | 28.31204 | -80.92972 | 37041 ft | 406 kts | 330° |
| 2026-04-20 00:53 | 28.36532 | -80.95128 | 37069 ft | 407 kts | 329° |
| 2026-04-20 00:54 | 28.41867 | -80.97284 | 37075 ft | 407 kts | 329° |
| 2026-04-20 00:54 | 28.47201 | -80.99442 | 37075 ft | 407 kts | 329° |
| 2026-04-20 00:55 | 28.52532 | -81.01606 | 37069 ft | 407 kts | 329° |
| 2026-04-20 00:55 | 28.57865 | -81.03775 | 37066 ft | 407 kts | 329° |
| 2026-04-20 00:56 | 28.63240 | -81.05955 | 37054 ft | 407 kts | 329° |
| 2026-04-20 00:56 | 28.68567 | -81.08123 | 37077 ft | 406 kts | 329° |
| 2026-04-20 00:57 | 28.73877 | -81.10281 | 37065 ft | 405 kts | 329° |
| 2026-04-20 00:57 | 28.79175 | -81.12439 | 37056 ft | 404 kts | 329° |
| 2026-04-20 00:58 | 28.84474 | -81.14607 | 37059 ft | 405 kts | 329° |
| 2026-04-20 00:58 | 28.89775 | -81.16772 | 37060 ft | 405 kts | 329° |
| 2026-04-20 00:59 | 28.95074 | -81.18933 | 37065 ft | 404 kts | 329° |
| 2026-04-20 00:59 | 29.00359 | -81.21103 | 37110 ft | 404 kts | 329° |
| 2026-04-20 01:00 | 29.05646 | -81.23277 | 37097 ft | 403 kts | 329° |
| 2026-04-20 01:00 | 29.10919 | -81.25447 | 37091 ft | 403 kts | 329° |
| 2026-04-20 01:01 | 29.16195 | -81.27613 | 37088 ft | 403 kts | 329° |
| 2026-04-20 01:01 | 29.21498 | -81.29801 | 37097 ft | 402 kts | 329° |
| 2026-04-20 01:02 | 29.26785 | -81.31910 | 37103 ft | 409 kts | 334° |
| 2026-04-20 01:02 | 29.29640 | -81.32441 | 37075 ft | 423 kts | 345° |
| 2026-04-20 01:02 | 29.32585 | -81.32608 | 37071 ft | 424 kts | 345° |
| 2026-04-20 01:03 | 29.38476 | -81.32943 | 37068 ft | 424 kts | 345° |
| 2026-04-20 01:03 | 29.44366 | -81.33289 | 37064 ft | 424 kts | 345° |
| 2026-04-20 01:04 | 29.50257 | -81.33640 | 37061 ft | 424 kts | 345° |
| 2026-04-20 01:04 | 29.56161 | -81.33989 | 37103 ft | 425 kts | 345° |
| 2026-04-20 01:05 | 29.62069 | -81.34341 | 37099 ft | 425 kts | 345° |
| 2026-04-20 01:05 | 29.67981 | -81.34697 | 37095 ft | 426 kts | 345° |
| 2026-04-20 01:06 | 29.73899 | -81.35045 | 37104 ft | 426 kts | 345° |
| 2026-04-20 01:06 | 29.79823 | -81.35393 | 37116 ft | 426 kts | 345° |
| 2026-04-20 01:07 | 29.85750 | -81.35749 | 37164 ft | 427 kts | 344° |
| 2026-04-20 01:07 | 29.91682 | -81.36108 | 37154 ft | 427 kts | 344° |
| 2026-04-20 01:08 | 29.97655 | -81.36457 | 37145 ft | 427 kts | 344° |
| 2026-04-20 01:08 | 30.03593 | -81.36805 | 37142 ft | 427 kts | 344° |
| 2026-04-20 01:09 | 30.09531 | -81.37159 | 37133 ft | 427 kts | 344° |
| 2026-04-20 01:09 | 30.14470 | -81.37457 | 37120 ft | 427 kts | 344° |
| 2026-04-20 01:10 | 30.20372 | -81.37807 | 37094 ft | 425 kts | 344° |
| 2026-04-20 01:10 | 30.29241 | -81.38345 | 37123 ft | 426 kts | 344° |
| 2026-04-20 01:11 | 30.35170 | -81.38703 | 37128 ft | 426 kts | 344° |
| 2026-04-20 01:11 | 30.41133 | -81.39058 | 37132 ft | 427 kts | 344° |
| 2026-04-20 01:12 | 30.47069 | -81.39407 | 37132 ft | 427 kts | 344° |
| 2026-04-20 01:12 | 30.53005 | -81.39726 | 37144 ft | 427 kts | 345° |
| 2026-04-20 01:13 | 30.58951 | -81.40032 | 37146 ft | 427 kts | 345° |
| 2026-04-20 01:13 | 30.64888 | -81.40344 | 37146 ft | 427 kts | 345° |
| 2026-04-20 01:14 | 30.70828 | -81.40653 | 37156 ft | 427 kts | 344° |
| 2026-04-20 01:14 | 30.76753 | -81.40970 | 37139 ft | 426 kts | 344° |
| 2026-04-20 01:15 | 30.82670 | -81.41291 | 37142 ft | 426 kts | 344° |
| 2026-04-20 01:15 | 30.88598 | -81.41607 | 37136 ft | 426 kts | 344° |
| 2026-04-20 01:16 | 30.94521 | -81.41916 | 37135 ft | 426 kts | 344° |
| 2026-04-20 01:16 | 31.00437 | -81.42232 | 37170 ft | 426 kts | 344° |
| 2026-04-20 01:17 | 31.06357 | -81.42550 | 37162 ft | 426 kts | 344° |
| 2026-04-20 01:17 | 31.12278 | -81.42867 | 37150 ft | 425 kts | 344° |
| 2026-04-20 01:18 | 31.18186 | -81.43182 | 37144 ft | 425 kts | 344° |
| 2026-04-20 01:18 | 31.24117 | -81.43457 | 37227 ft | 432 kts | 348° |
| 2026-04-20 01:19 | 31.27160 | -81.43078 | 37160 ft | 449 kts | 359° |
| 2026-04-20 01:19 | 31.30216 | -81.42279 | 37150 ft | 450 kts | 360° |
| 2026-04-20 01:19 | 31.36360 | -81.40645 | 37141 ft | 450 kts | 360° |
| 2026-04-20 01:20 | 31.42475 | -81.39031 | 37135 ft | 451 kts | 360° |
| 2026-04-20 01:20 | 31.48604 | -81.37422 | 36601 ft | 451 kts | 0° |
| 2026-04-20 01:21 | 31.51669 | -81.36614 | 35974 ft | 452 kts | 0° |
| 2026-04-20 01:21 | 31.54752 | -81.35805 | 35256 ft | 455 kts | 1° |
| 2026-04-20 01:21 | 31.57851 | -81.34992 | 34618 ft | 457 kts | 1° |
| 2026-04-20 01:21 | 31.60938 | -81.34174 | 34126 ft | 454 kts | 1° |
| 2026-04-20 01:22 | 31.64004 | -81.33357 | 33592 ft | 451 kts | 1° |
| 2026-04-20 01:22 | 31.67058 | -81.32542 | 33086 ft | 447 kts | 1° |
| 2026-04-20 01:22 | 31.70080 | -81.31738 | 32609 ft | 443 kts | 1° |
| 2026-04-20 01:22 | 31.73078 | -81.30942 | 32138 ft | 440 kts | 1° |
| 2026-04-20 01:23 | 31.76044 | -81.30157 | 31679 ft | 436 kts | 1° |
| 2026-04-20 01:23 | 31.78996 | -81.29380 | 31236 ft | 433 kts | 1° |
| 2026-04-20 01:23 | 31.81937 | -81.28607 | 30698 ft | 432 kts | 1° |
| 2026-04-20 01:23 | 31.84862 | -81.27835 | 30239 ft | 429 kts | 2° |
| 2026-04-20 01:24 | 31.87755 | -81.27063 | 29799 ft | 424 kts | 2° |
| 2026-04-20 01:24 | 31.90622 | -81.26298 | 29314 ft | 421 kts | 2° |
| 2026-04-20 01:24 | 31.93469 | -81.25542 | 28834 ft | 418 kts | 2° |
| 2026-04-20 01:24 | 31.96296 | -81.24792 | 28367 ft | 415 kts | 3° |
| 2026-04-20 01:25 | 31.99102 | -81.24050 | 27915 ft | 412 kts | 3° |
| 2026-04-20 01:25 | 32.01893 | -81.23309 | 27474 ft | 410 kts | 3° |
| 2026-04-20 01:25 | 32.04672 | -81.22569 | 27094 ft | 408 kts | 2° |
| 2026-04-20 01:25 | 32.07428 | -81.21833 | 26725 ft | 406 kts | 2° |
| 2026-04-20 01:26 | 32.10180 | -81.21092 | 26324 ft | 404 kts | 4° |
| 2026-04-20 01:26 | 32.12854 | -81.19967 | 25934 ft | 416 kts | 18° |
| 2026-04-20 01:26 | 32.15319 | -81.18094 | 25553 ft | 427 kts | 33° |
| 2026-04-20 01:26 | 32.17390 | -81.15555 | 25165 ft | 434 kts | 47° |
| 2026-04-20 01:27 | 32.19221 | -81.12671 | 24764 ft | 432 kts | 48° |
| 2026-04-20 01:27 | 32.21007 | -81.09835 | 24384 ft | 429 kts | 48° |
| 2026-04-20 01:27 | 32.22777 | -81.07014 | 24016 ft | 425 kts | 49° |
| 2026-04-20 01:27 | 32.24532 | -81.04218 | 23630 ft | 422 kts | 49° |
| 2026-04-20 01:28 | 32.26273 | -81.01448 | 23207 ft | 418 kts | 49° |
| 2026-04-20 01:28 | 32.27996 | -80.98706 | 22809 ft | 414 kts | 49° |
| 2026-04-20 01:28 | 32.29706 | -80.95987 | 22454 ft | 410 kts | 49° |
| 2026-04-20 01:28 | 32.31394 | -80.93303 | 22094 ft | 405 kts | 49° |
| 2026-04-20 01:29 | 32.33066 | -80.90644 | 21715 ft | 401 kts | 49° |
| 2026-04-20 01:29 | 32.34722 | -80.88008 | 21304 ft | 398 kts | 49° |
| 2026-04-20 01:29 | 32.36365 | -80.85389 | 20937 ft | 394 kts | 49° |
| 2026-04-20 01:29 | 32.37988 | -80.82796 | 20581 ft | 390 kts | 49° |
| 2026-04-20 01:30 | 32.39594 | -80.80225 | 20234 ft | 387 kts | 49° |
| 2026-04-20 01:30 | 32.41187 | -80.77679 | 19890 ft | 383 kts | 49° |
| 2026-04-20 01:30 | 32.42761 | -80.75164 | 19552 ft | 379 kts | 50° |
| 2026-04-20 01:30 | 32.44323 | -80.72665 | 19213 ft | 376 kts | 50° |
| 2026-04-20 01:31 | 32.45867 | -80.70193 | 18896 ft | 372 kts | 50° |
| 2026-04-20 01:31 | 32.47400 | -80.67738 | 18569 ft | 369 kts | 50° |
| 2026-04-20 01:31 | 32.48916 | -80.65306 | 18212 ft | 365 kts | 50° |
| 2026-04-20 01:31 | 32.50419 | -80.62894 | 17840 ft | 363 kts | 50° |
| 2026-04-20 01:32 | 32.51928 | -80.60476 | 17063 ft | 370 kts | 50° |
| 2026-04-20 01:32 | 32.53492 | -80.57974 | 16063 ft | 385 kts | 50° |
| 2026-04-20 01:32 | 32.55118 | -80.55371 | 15041 ft | 400 kts | 50° |
| 2026-04-20 01:32 | 32.56793 | -80.52682 | 13981 ft | 413 kts | 50° |
| 2026-04-20 01:33 | 32.58525 | -80.49894 | 12862 ft | 424 kts | 51° |
| 2026-04-20 01:33 | 32.60265 | -80.47085 | 12132 ft | 422 kts | 51° |
| 2026-04-20 01:33 | 32.61994 | -80.44293 | 11485 ft | 417 kts | 51° |
| 2026-04-20 01:33 | 32.63737 | -80.41572 | 10844 ft | 411 kts | 50° |
| 2026-04-20 01:34 | 32.65468 | -80.38960 | 10660 ft | 393 kts | 49° |
| 2026-04-20 01:34 | 32.66914 | -80.36296 | 10533 ft | 378 kts | 64° |
| 2026-04-20 01:34 | 32.67509 | -80.33289 | 10416 ft | 365 kts | 87° |
| 2026-04-20 01:34 | 32.67214 | -80.30367 | 10296 ft | 351 kts | 103° |
| 2026-04-20 01:35 | 32.66655 | -80.27605 | 10184 ft | 338 kts | 104° |
| 2026-04-20 01:35 | 32.66101 | -80.24946 | 10078 ft | 326 kts | 104° |
| 2026-04-20 01:35 | 32.65563 | -80.22379 | 9936 ft | 315 kts | 104° |
| 2026-04-20 01:35 | 32.65036 | -80.19886 | 9671 ft | 309 kts | 104° |
| 2026-04-20 01:36 | 32.64507 | -80.17426 | 9335 ft | 306 kts | 104° |
| 2026-04-20 01:36 | 32.63979 | -80.14986 | 8955 ft | 305 kts | 104° |
| 2026-04-20 01:36 | 32.63459 | -80.12560 | 8592 ft | 303 kts | 103° |
| 2026-04-20 01:36 | 32.62933 | -80.10152 | 8249 ft | 300 kts | 104° |
| 2026-04-20 01:37 | 32.62405 | -80.07766 | 7924 ft | 297 kts | 103° |
| 2026-04-20 01:37 | 32.61833 | -80.05425 | 7587 ft | 295 kts | 111° |
| 2026-04-20 01:37 | 32.60675 | -80.03451 | 7259 ft | 292 kts | 139° |
| 2026-04-20 01:37 | 32.58925 | -80.02283 | 6909 ft | 290 kts | 162° |
| 2026-04-20 01:38 | 32.56988 | -80.01634 | 6501 ft | 289 kts | 166° |
| 2026-04-20 01:38 | 32.55040 | -80.01062 | 6103 ft | 288 kts | 166° |
| 2026-04-20 01:38 | 32.53095 | -80.00512 | 5696 ft | 287 kts | 166° |
| 2026-04-20 01:38 | 32.51160 | -79.99980 | 5305 ft | 285 kts | 166° |
| 2026-04-20 01:39 | 32.49228 | -79.99468 | 4891 ft | 284 kts | 167° |
| 2026-04-20 01:39 | 32.47301 | -79.98957 | 4482 ft | 282 kts | 166° |
| 2026-04-20 01:39 | 32.45392 | -79.98416 | 4037 ft | 282 kts | 160° |
| 2026-04-20 01:39 | 32.43704 | -79.97296 | 3571 ft | 279 kts | 135° |
| 2026-04-20 01:40 | 32.42552 | -79.95508 | 3148 ft | 270 kts | 110° |
| 2026-04-20 01:40 | 32.42095 | -79.93422 | 2996 ft | 258 kts | 87° |
| 2026-04-20 01:40 | 32.42298 | -79.91352 | 3003 ft | 251 kts | 67° |
| 2026-04-20 01:40 | 32.43095 | -79.89540 | 3006 ft | 247 kts | 47° |
| 2026-04-20 01:41 | 32.44356 | -79.88214 | 3007 ft | 240 kts | 27° |
| 2026-04-20 01:41 | 32.45893 | -79.87499 | 3008 ft | 237 kts | 9° |
| 2026-04-20 01:41 | 32.47522 | -79.87445 | 3009 ft | 237 kts | 352° |
| 2026-04-20 01:41 | 32.49096 | -79.88057 | 3006 ft | 237 kts | 335° |
| 2026-04-20 01:42 | 32.50083 | -79.88587 | 3002 ft | 224 kts | 343° |
| 2026-04-20 01:42 | 32.51980 | -79.89109 | 3010 ft | 201 kts | 348° |
| 2026-04-20 01:42 | 32.52880 | -79.89353 | 3010 ft | 193 kts | 348° |
| 2026-04-20 01:42 | 32.54179 | -79.89709 | 3013 ft | 191 kts | 348° |
| 2026-04-20 01:43 | 32.55471 | -79.90055 | 3012 ft | 190 kts | 348° |
| 2026-04-20 01:43 | 32.56728 | -79.90441 | 2989 ft | 183 kts | 341° |
| 2026-04-20 01:43 | 32.57912 | -79.90864 | 2995 ft | 175 kts | 348° |
| 2026-04-20 01:43 | 32.59093 | -79.91165 | 3007 ft | 173 kts | 349° |
| 2026-04-20 01:44 | 32.60274 | -79.91451 | 3012 ft | 173 kts | 349° |
| 2026-04-20 01:44 | 32.61437 | -79.91737 | 3029 ft | 165 kts | 349° |
| 2026-04-20 01:44 | 32.62515 | -79.92007 | 3005 ft | 151 kts | 349° |
| 2026-04-20 01:44 | 32.63488 | -79.92256 | 3006 ft | 137 kts | 349° |
| 2026-04-20 01:45 | 32.64396 | -79.92489 | 3011 ft | 131 kts | 349° |
| 2026-04-20 01:45 | 32.65278 | -79.92719 | 3015 ft | 129 kts | 349° |
| 2026-04-20 01:45 | 32.66154 | -79.92949 | 3016 ft | 129 kts | 349° |
| 2026-04-20 01:45 | 32.67023 | -79.93177 | 3024 ft | 127 kts | 350° |
| 2026-04-20 01:46 | 32.67890 | -79.93403 | 3020 ft | 128 kts | 350° |
| 2026-04-20 01:46 | 32.68755 | -79.93633 | 3021 ft | 127 kts | 349° |
| 2026-04-20 01:46 | 32.69619 | -79.93862 | 3020 ft | 127 kts | 349° |
| 2026-04-20 01:46 | 32.70481 | -79.94092 | 3020 ft | 127 kts | 349° |
| 2026-04-20 01:47 | 32.71344 | -79.94324 | 3018 ft | 127 kts | 349° |
| 2026-04-20 01:47 | 32.72209 | -79.94554 | 3019 ft | 127 kts | 349° |
| 2026-04-20 01:47 | 32.73074 | -79.94783 | 3019 ft | 127 kts | 349° |
| 2026-04-20 01:47 | 32.73935 | -79.95009 | 3018 ft | 127 kts | 349° |
| 2026-04-20 01:48 | 32.74807 | -79.95243 | 3017 ft | 127 kts | 349° |
| 2026-04-20 01:48 | 32.75669 | -79.95476 | 3017 ft | 128 kts | 349° |
| 2026-04-20 01:48 | 32.76533 | -79.95708 | 3018 ft | 127 kts | 349° |
| 2026-04-20 01:48 | 32.77398 | -79.95940 | 3019 ft | 127 kts | 349° |
| 2026-04-20 01:49 | 32.78255 | -79.96168 | 3022 ft | 126 kts | 349° |
| 2026-04-20 01:49 | 32.79096 | -79.96391 | 2888 ft | 122 kts | 349° |
| 2026-04-20 01:49 | 32.79931 | -79.96615 | 2517 ft | 123 kts | 349° |
| 2026-04-20 01:49 | 32.80755 | -79.96895 | 2155 ft | 125 kts | 336° |
| 2026-04-20 01:50 | 32.81488 | -79.97456 | 1912 ft | 124 kts | 335° |
| 2026-04-20 01:50 | 32.82228 | -79.97983 | 1704 ft | 124 kts | 333° |
| 2026-04-20 01:50 | 32.82960 | -79.98519 | 1514 ft | 124 kts | 333° |
| 2026-04-20 01:50 | 32.83692 | -79.99062 | 1338 ft | 124 kts | 332° |
| 2026-04-20 01:51 | 32.84418 | -79.99606 | 1170 ft | 122 kts | 332° |
| 2026-04-20 01:51 | 32.85139 | -80.00148 | 1007 ft | 123 kts | 331° |
| 2026-04-20 01:51 | 32.85858 | -80.00691 | 846 ft | 123 kts | 331° |
| 2026-04-20 01:51 | 32.86582 | -80.01238 | 690 ft | 124 kts | 329° |
| 2026-04-20 01:52 | 32.87318 | -80.01778 | 510 ft | 124 kts | 330° |
| 2026-04-20 01:52 | 32.88036 | -80.02347 | 355 ft | 125 kts | 328° |
| 2026-04-20 01:52 | 32.88771 | -80.02902 | 170 ft | 125 kts | 329° |
| 2026-04-20 01:52 | 32.89500 | -80.03453 | 48 ft | 118 kts | 329° |
| 2026-04-20 01:53 | 32.90055 | -80.03868 | 41 ft | 57 kts | 327° |
| 2026-04-20 01:53 | 32.90272 | -80.04030 | 41 ft | 32 kts | 328° |
| 2026-04-20 01:53 | 32.90458 | -80.04170 | 38 ft | 31 kts | 328° |
| 2026-04-20 01:53 | 32.90637 | -80.04303 | 39 ft | 29 kts | 328° |
| 2026-04-20 01:54 | 32.90798 | -80.04430 | 41 ft | 22 kts | 317° |
| 2026-04-20 01:54 | 32.90778 | -80.04533 | 41 ft | 10 kts | 236° |
| 2026-04-20 01:54 | 32.90733 | -80.04610 | 39 ft | 12 kts | 232° |
| 2026-04-20 01:54 | 32.90661 | -80.04630 | 41 ft | 13 kts | 149° |
| 2026-04-20 01:55 | 32.90581 | -80.04568 | 41 ft | 15 kts | 147° |
| 2026-04-20 01:55 | 32.90489 | -80.04498 | 41 ft | 17 kts | 147° |
| 2026-04-20 01:55 | 32.90383 | -80.04442 | 40 ft | 17 kts | 180° |
| 2026-04-20 01:55 | 32.90257 | -80.04442 | 41 ft | 19 kts | 181° |
| 2026-04-20 01:56 | 32.90120 | -80.04445 | 41 ft | 20 kts | 181° |
| 2026-04-20 01:56 | 32.89973 | -80.04447 | 41 ft | 22 kts | 181° |
| 2026-04-20 01:56 | 32.89815 | -80.04451 | 41 ft | 23 kts | 182° |
| 2026-04-20 01:56 | 32.89647 | -80.04454 | 41 ft | 25 kts | 180° |
| 2026-04-20 01:57 | 32.89472 | -80.04459 | 41 ft | 26 kts | 181° |
| 2026-04-20 01:57 | 32.89289 | -80.04463 | 41 ft | 27 kts | 180° |
| 2026-04-20 01:57 | 32.89105 | -80.04507 | 41 ft | 28 kts | 204° |
| 2026-04-20 01:57 | 32.88926 | -80.04602 | 40 ft | 29 kts | 204° |
| 2026-04-20 01:58 | 32.88743 | -80.04701 | 41 ft | 29 kts | 202° |
| 2026-04-20 01:58 | 32.88565 | -80.04628 | 41 ft | 28 kts | 156° |
| 2026-04-20 01:58 | 32.88480 | -80.04445 | 41 ft | 28 kts | 91° |
| 2026-04-20 01:58 | 32.88577 | -80.04254 | 40 ft | 28 kts | 52° |
| 2026-04-20 01:59 | 32.88679 | -80.04072 | 41 ft | 22 kts | 90° |
| 2026-04-20 01:59 | 32.88618 | -80.03991 | 41 ft | 12 kts | 117° |
| 2026-04-20 01:59 | 32.88652 | -80.03925 | 41 ft | 10 kts | 47° |
| 2026-04-20 01:59 | 32.88705 | -80.03860 | 40 ft | 12 kts | 53° |
| 2026-04-20 02:00 | 32.88719 | -80.03786 | 39 ft | 8 kts | 126° |
| 2026-04-20 02:00 | 32.88687 | -80.03759 | 41 ft | 6 kts | 165° |
| 2026-04-20 02:00 | 32.88663 | -80.03769 | 41 ft | 3 kts | 202° |
| 2026-04-20 02:00 | 32.88649 | -80.03774 | 41 ft | 0 kts | 198° |